CheckWX is a tool to help pilots better visualize weather data.  It is not intended as a substitute for an official pre-flight weather briefing.

03:21:16 UTC

KSUX TAF
Sioux Gateway / Col Bud Day Field Airport
Sioux City, Iowa, USA
KSUX 160249Z 1603/1624 VRB02KT P6SM FEW150 FM161200 00000KT 6SM BR BKN015 FM161700 VRB04KT P6SM BKN025 FM162000 32006KT P6SM SCT035

Dec-16@
03:00 UTC

Dec-16 @ 03:00 UTC

Dec-16@
12:00 UTC

Dec-16 @ 12:00 UTC

KSUX 160249Z 1603/1624 VRB02KT P6SM FEW150
Wind
  • Variable at 2 KTS
Cloud Levels
  • Few at 15,000' AGL

Dec-16@
12:00 UTC

Dec-16 @ 12:00 UTC

Dec-16@
17:00 UTC

Dec-16 @ 17:00 UTC

FM161200 00000KT 6SM BR BKN015

From

From Standard forecast or significant change

Conditions
Mist
Cloud Levels
  • Broken at 1,500' AGL

Dec-16@
17:00 UTC

Dec-16 @ 17:00 UTC

Dec-16@
20:00 UTC

Dec-16 @ 20:00 UTC

FM161700 VRB04KT P6SM BKN025

From

From Standard forecast or significant change

Wind
  • Variable at 4 KTS
Cloud Levels
  • Broken at 2,500' AGL

Dec-16@
20:00 UTC

Dec-16 @ 20:00 UTC

Dec-17@
00:00 UTC

Dec-17 @ 00:00 UTC

FM162000 32006KT P6SM SCT035

From

From Standard forecast or significant change

Wind
  • 320° at 6 KTS
Cloud Levels
  • Scattered at 3,500' AGL